Time;durP1;ratioP1;P1;durP2;ratioP2;P2;SDS_P1;SDS_P2;PMS_P1;PMS_P2;Temp;Humidity;BMP_temperature;BMP_pressure;BME280_temperature;BME280_humidity;BME280_pressure;Samples;Min_cycle;Max_cycle;Signal;HPM_P1;HPM_P2
2023/02/26 00:01:40;;;;;;;6.55;3.60;;;;;;;0.39;98.39;98803.13;1801157;79;27428;-52
2023/02/26 00:04:09;;;;;;;5.40;3.45;;;;;;;0.37;98.05;98812.72;1801057;79;25585;-52
2023/02/26 00:06:51;;;;;;;5.90;3.58;;;;;;;0.34;97.98;98815.93;1801175;79;25507;-49
2023/02/26 00:09:08;;;;;;;3.60;3.02;;;;;;;0.29;97.75;98821.28;1799360;79;25513;-51
2023/02/26 00:11:37;;;;;;;4.35;3.40;;;;;;;0.25;97.79;98826.37;1801147;79;25452;-52
2023/02/26 00:14:09;;;;;;;5.00;3.30;;;;;;;0.24;97.71;98827.97;1801144;79;27945;-49
2023/02/26 00:16:37;;;;;;;6.28;3.72;;;;;;;0.21;97.69;98825.89;1800856;79;25550;-51
2023/02/26 00:19:09;;;;;;;5.43;3.63;;;;;;;0.22;97.83;98836.77;1801412;79;25560;-50
2023/02/26 00:21:37;;;;;;;4.70;3.17;;;;;;;0.18;97.42;98832.53;1801151;79;26059;-52
2023/02/26 00:24:07;;;;;;;5.45;3.27;;;;;;;0.15;97.03;98843.72;1801164;79;25444;-50
2023/02/26 00:26:34;;;;;;;4.58;3.45;;;;;;;0.12;97.17;98847.73;1801270;79;27242;-50
2023/02/26 00:29:04;;;;;;;10.03;4.72;;;;;;;0.09;96.87;98848.28;1801074;79;25385;-52
2023/02/26 00:31:33;;;;;;;6.83;3.77;;;;;;;0.08;97.05;98851.21;1801342;79;25380;-50
2023/02/26 00:34:02;;;;;;;3.90;2.87;;;;;;;0.07;97.02;98856.26;1801236;79;25555;-51
2023/02/26 00:36:41;;;;;;;4.67;3.37;;;;;;;0.07;97.08;98857.59;1801380;79;25621;-51
2023/02/26 00:39:22;;;;;;;4.55;3.42;;;;;;;0.06;96.99;98863.99;1801431;79;27989;-50
2023/02/26 00:41:50;;;;;;;6.65;3.72;;;;;;;0.06;96.90;98860.00;1797366;79;25585;-54
2023/02/26 00:44:20;;;;;;;3.57;2.03;;;;;;;0.04;96.84;98864.27;1801427;79;25620;-51
2023/02/26 00:47:24;;;;;;;4.80;3.17;;;;;;;0.01;96.53;98872.78;1801149;79;25394;-51
2023/02/26 00:50:21;;;;;;;5.17;3.70;;;;;;;0.01;96.53;98873.33;1802662;78;25194;-50
2023/02/26 00:53:02;;;;;;;4.83;3.10;;;;;;;-0.03;96.40;98873.08;1827822;78;27329;-49
2023/02/26 00:55:30;;;;;;;4.97;3.60;;;;;;;-0.06;96.22;98882.38;1829447;78;25729;-50
2023/02/26 00:57:57;;;;;;;4.70;3.10;;;;;;;-0.06;96.12;98887.70;1829485;78;25581;-50
2023/02/26 01:00:25;;;;;;;5.00;3.27;;;;;;;-0.10;96.01;98889.32;1829456;78;25499;-50
2023/02/26 01:02:53;;;;;;;4.65;3.52;;;;;;;-0.12;96.04;98890.13;1829521;78;25459;-50
2023/02/26 01:05:22;;;;;;;6.00;3.37;;;;;;;-0.12;96.14;98899.95;1829735;78;27567;-50
2023/02/26 01:08:30;;;;;;;3.85;2.95;;;;;;;-0.13;96.23;98902.36;1829383;78;25448;-50
2023/02/26 01:10:58;;;;;;;3.12;2.15;;;;;;;-0.14;96.49;98913.51;1829596;78;25524;-50
2023/02/26 01:13:26;;;;;;;5.45;3.02;;;;;;;-0.14;96.77;98904.20;1829405;78;25427;-52
2023/02/26 01:15:58;;;;;;;4.83;3.30;;;;;;;-0.13;96.83;98914.33;1829510;78;25401;-51
2023/02/26 01:18:29;;;;;;;5.33;3.33;;;;;;;-0.13;96.80;98912.45;1829457;78;27400;-50
2023/02/26 01:21:01;;;;;;;4.90;3.40;;;;;;;-0.12;96.94;98918.55;1829183;78;25431;-53
2023/02/26 01:23:33;;;;;;;4.95;3.05;;;;;;;-0.12;97.02;98923.88;1829583;78;25434;-54
2023/02/26 01:26:20;;;;;;;4.78;3.30;;;;;;;-0.13;96.87;98928.40;1829445;78;26003;-50
2023/02/26 01:28:49;;;;;;;5.45;3.52;;;;;;;-0.13;96.89;98928.40;1829424;77;25558;-54
2023/02/26 01:31:36;;;;;;;3.90;2.37;;;;;;;-0.16;96.38;98936.91;1829745;78;27383;-54
2023/02/26 01:34:26;;;;;;;4.92;3.72;;;;;;;-0.18;96.06;98940.38;1829095;77;25620;-54
2023/02/26 01:37:20;;;;;;;6.33;3.67;;;;;;;-0.21;96.12;98946.23;1824435;78;25446;-53
2023/02/26 01:40:17;;;;;;;5.67;3.65;;;;;;;-0.21;96.18;98937.71;1795376;78;25920;-51
2023/02/26 01:42:48;;;;;;;5.85;3.42;;;;;;;-0.24;95.66;98946.77;1828223;78;25544;-50
2023/02/26 01:45:26;;;;;;;5.72;3.42;;;;;;;-0.26;95.52;98958.99;1829528;78;27379;-52
2023/02/26 01:47:59;;;;;;;4.37;3.20;;;;;;;-0.27;95.41;98961.41;1828809;78;25596;-50
2023/02/26 01:50:31;;;;;;;5.33;3.17;;;;;;;-0.29;95.45;98964.87;1828613;78;25476;-52
2023/02/26 01:53:23;;;;;;;6.17;3.77;;;;;;;-0.28;95.38;98968.31;1829390;78;25486;-51
2023/02/26 01:56:05;;;;;;;9.40;6.50;;;;;;;-0.31;95.18;98980.27;1829527;78;25544;-51
2023/02/26 01:58:36;;;;;;;6.00;3.90;;;;;;;-0.31;95.11;98992.22;1828698;78;27898;-50
2023/02/26 02:01:04;;;;;;;6.60;4.78;;;;;;;-0.31;95.15;98992.22;1829438;78;25576;-51
2023/02/26 02:03:36;;;;;;;5.72;3.70;;;;;;;-0.32;94.88;99002.60;1829469;78;25556;-51
2023/02/26 02:06:08;;;;;;;5.42;3.60;;;;;;;-0.33;94.90;99008.97;1829458;78;25579;-51
2023/02/26 02:08:35;;;;;;;6.55;4.72;;;;;;;-0.33;94.69;99012.95;1829546;78;25562;-51
2023/02/26 02:11:06;;;;;;;6.67;3.72;;;;;;;-0.36;94.51;99014.81;1829419;78;27323;-51
2023/02/26 02:13:59;;;;;;;5.90;4.22;;;;;;;-0.36;94.47;99032.63;1829361;78;25631;-51
2023/02/26 02:16:55;;;;;;;5.17;4.45;;;;;;;-0.38;94.17;99034.22;1829472;78;25562;-53
2023/02/26 02:20:10;;;;;;;6.30;3.72;;;;;;;-0.41;94.00;99038.22;1829471;78;25834;-52
2023/02/26 02:23:09;;;;;;;6.10;3.85;;;;;;;-0.43;93.86;99045.64;1829476;78;25456;-50
2023/02/26 02:25:58;;;;;;;5.33;4.70;;;;;;;-0.44;93.83;99049.91;1829774;78;27444;-50
2023/02/26 02:28:52;;;;;;;7.65;5.80;;;;;;;-0.46;93.76;99058.66;1829665;78;25388;-49
2023/02/26 02:31:36;;;;;;;6.30;5.70;;;;;;;-0.47;93.74;99058.41;1829641;78;25414;-49
2023/02/26 02:34:16;;;;;;;5.78;2.98;;;;;;;-0.49;93.55;99068.52;1783779;80;25658;-49
2023/02/26 02:37:04;;;;;;;12.15;11.22;;;;;;;-0.50;93.48;99073.55;1784377;80;25606;-49
2023/02/26 02:39:48;;;;;;;40.85;38.28;;;;;;;-0.49;93.68;99073.83;1784829;80;27553;-49
2023/02/26 02:42:35;;;;;;;24.25;22.85;;;;;;;-0.50;93.63;99075.66;1784811;80;25637;-50
2023/02/26 02:45:16;;;;;;;49.80;46.60;;;;;;;-0.50;93.37;99085.50;1783976;80;25490;-51
2023/02/26 02:47:47;;;;;;;45.23;42.27;;;;;;;-0.50;93.34;99086.83;1784410;80;25591;-54
2023/02/26 02:50:25;;;;;;;71.10;66.20;;;;;;;-0.52;93.16;99093.73;1784844;80;25450;-54
2023/02/26 02:53:18;;;;;;;57.80;53.92;;;;;;;-0.54;92.98;99101.17;1783690;80;27546;-54
2023/02/26 02:55:53;;;;;;;63.80;59.38;;;;;;;-0.54;92.50;99099.06;1784816;80;25490;-54
2023/02/26 02:58:25;;;;;;;78.65;73.15;;;;;;;-0.56;91.98;99104.63;1783052;80;25689;-53
2023/02/26 03:00:57;;;;;;;82.88;77.00;;;;;;;-0.58;92.09;99106.23;1784782;80;26000;-53
2023/02/26 03:03:46;;;;;;;79.85;74.32;;;;;;;-0.58;92.21;99108.87;1784811;80;25588;-54
2023/02/26 03:06:12;;;;;;;80.75;75.20;;;;;;;-0.58;92.13;99112.86;1784151;80;27401;-54
2023/02/26 03:08:43;;;;;;;81.20;75.60;;;;;;;-0.58;91.99;99116.03;1784732;80;25439;-54
2023/02/26 03:11:10;;;;;;;80.62;74.92;;;;;;;-0.59;91.89;99121.09;1828965;78;25573;-52
2023/02/26 03:13:39;;;;;;;80.17;74.70;;;;;;;-0.59;92.08;99129.85;1829482;78;27498;-54
2023/02/26 03:16:17;;;;;;;80.62;75.12;;;;;;;-0.56;92.25;99133.85;1829648;78;25548;-52
2023/02/26 03:19:25;;;;;;;80.80;75.25;;;;;;;-0.55;92.32;99143.94;1829598;78;29557;-52
2023/02/26 03:22:19;;;;;;;83.25;77.17;;;;;;;-0.55;92.15;99149.25;1829527;78;25559;-51
2023/02/26 03:25:09;;;;;;;81.17;75.35;;;;;;;-0.54;92.13;99160.95;1788768;78;25554;-50
2023/02/26 03:27:50;;;;;;;78.90;73.52;;;;;;;-0.54;92.11;99160.95;1796959;79;25897;-52
2023/02/26 03:30:31;;;;;;;79.70;74.17;;;;;;;-0.53;92.16;99169.16;1832485;78;25528;-54
2023/02/26 03:33:21;;;;;;;73.57;68.45;;;;;;;-0.51;92.24;99175.03;1795006;79;27372;-54
2023/02/26 03:36:26;;;;;;;80.80;75.20;;;;;;;-0.50;92.20;99175.83;1829478;78;25390;-51
2023/02/26 03:39:05;;;;;;;82.05;76.33;;;;;;;-0.50;92.21;99185.13;1829508;78;25597;-50
2023/02/26 03:41:49;;;;;;;80.75;75.25;;;;;;;-0.48;92.35;99190.42;1829717;78;25599;-51
2023/02/26 03:44:23;;;;;;;80.35;74.90;;;;;;;-0.48;92.40;99193.08;1829635;78;25603;-49
2023/02/26 03:46:55;;;;;;;82.42;76.70;;;;;;;-0.46;92.41;99194.16;1829472;78;27370;-51
2023/02/26 03:49:32;;;;;;;79.92;74.27;;;;;;;-0.46;92.19;99200.80;1829482;78;25596;-49
2023/02/26 03:52:02;;;;;;;74.80;69.77;;;;;;;-0.44;92.08;99204.02;1814701;78;25383;-50
2023/02/26 03:54:34;;;;;;;82.80;76.70;;;;;;;-0.46;92.01;99209.58;1801104;79;25875;-50
2023/02/26 03:57:00;;;;;;;83.22;77.32;;;;;;;-0.46;91.79;99208.77;1801186;79;25555;-49
2023/02/26 03:59:27;;;;;;;82.02;76.33;;;;;;;-0.46;91.83;99215.41;1801160;79;27372;-50
2023/02/26 04:02:19;;;;;;;81.20;75.62;;;;;;;-0.46;91.65;99218.06;1801076;79;25630;-52
2023/02/26 04:05:06;;;;;;;80.75;75.28;;;;;;;-0.50;91.23;99215.67;1800005;79;25387;-52
2023/02/26 04:07:33;;;;;;;82.20;76.53;;;;;;;-0.52;90.87;99231.08;1814489;78;25889;-50
2023/02/26 04:10:00;;;;;;;80.65;75.00;;;;;;;-0.54;90.76;99229.22;1815657;78;25368;-50
2023/02/26 04:12:28;;;;;;;79.62;74.22;;;;;;;-0.57;90.66;99236.63;1815616;79;27301;-51
2023/02/26 04:14:57;;;;;;;82.37;76.50;;;;;;;-0.57;90.66;99245.92;1815534;78;25550;-55
2023/02/26 04:17:23;;;;;;;80.05;74.65;;;;;;;-0.57;90.55;99247.80;1815776;78;25370;-51
2023/02/26 04:19:49;;;;;;;79.25;73.85;;;;;;;-0.59;90.36;99253.91;1815708;79;25516;-52
2023/02/26 04:22:16;;;;;;;2.60;2.37;;;;;;;-0.60;89.96;99260.27;1815732;79;25527;-54
2023/02/26 04:24:43;;;;;;;3.77;2.67;;;;;;;-0.61;89.98;99266.66;1815647;79;27398;-49
2023/02/26 04:27:09;;;;;;;6.37;5.55;;;;;;;-0.61;90.01;99262.67;1815506;77;25862;-51
2023/02/26 04:29:36;;;;;;;48.15;45.23;;;;;;;-0.62;89.87;99263.17;1815617;78;25588;-51
2023/02/26 04:32:03;;;;;;;77.20;71.97;;;;;;;-0.63;89.70;99264.77;1815607;79;25550;-49
2023/02/26 04:34:29;;;;;;;28.00;26.33;;;;;;;-0.63;89.74;99268.23;1815594;79;25516;-53
2023/02/26 04:36:56;;;;;;;57.33;53.50;;;;;;;-0.63;89.62;99274.88;1815724;79;27402;-50
2023/02/26 04:39:24;;;;;;;78.12;72.92;;;;;;;-0.64;89.67;99270.61;1815549;79;25676;-49
2023/02/26 04:41:50;;;;;;;79.97;74.47;;;;;;;-0.64;89.46;99283.89;1815612;79;25549;-50
2023/02/26 04:44:16;;;;;;;79.50;73.90;;;;;;;-0.63;89.32;99282.84;1801059;79;25455;-51
2023/02/26 04:46:44;;;;;;;81.35;75.83;;;;;;;-0.62;89.45;99288.95;1801051;79;25609;-49
2023/02/26 04:49:10;;;;;;;79.32;73.92;;;;;;;-0.63;89.36;99289.48;1801129;79;27906;-49
2023/02/26 04:51:37;;;;;;;37.38;34.73;;;;;;;-0.63;89.37;99294.80;1800888;79;25830;-51
2023/02/26 04:54:04;;;;;;;78.33;72.92;;;;;;;-0.61;89.58;99297.98;1801082;79;25411;-49
2023/02/26 04:56:32;;;;;;;80.85;75.25;;;;;;;-0.59;89.52;99296.41;1801049;79;25484;-50
2023/02/26 04:58:59;;;;;;;79.55;74.03;;;;;;;-0.60;89.27;99305.42;1801121;79;25617;-50
2023/02/26 05:01:26;;;;;;;78.97;73.57;;;;;;;-0.61;89.01;99307.83;1801063;79;27373;-50
2023/02/26 05:03:53;;;;;;;80.67;75.25;;;;;;;-0.62;88.97;99310.98;1801000;79;25605;-49
2023/02/26 05:06:19;;;;;;;78.37;73.07;;;;;;;-0.64;89.03;99315.77;1801097;79;25373;-50
2023/02/26 05:08:46;;;;;;;79.40;74.03;;;;;;;-0.64;88.96;99322.41;1801088;79;25383;-50
2023/02/26 05:11:12;;;;;;;78.92;73.60;;;;;;;-0.65;88.96;99323.45;1801110;79;25611;-50
2023/02/26 05:13:39;;;;;;;78.83;73.42;;;;;;;-0.67;88.87;99332.75;1801042;79;27349;-52
2023/02/26 05:16:08;;;;;;;78.70;73.45;;;;;;;-0.68;88.97;99323.99;1801022;79;25388;-50
2023/02/26 05:18:34;;;;;;;57.97;54.07;;;;;;;-0.67;88.95;99335.41;1801373;79;25421;-53
2023/02/26 05:21:00;;;;;;;80.62;74.92;;;;;;;-0.68;89.09;99339.11;1801022;79;25540;-51
2023/02/26 05:23:27;;;;;;;78.33;73.12;;;;;;;-0.69;88.65;99340.97;1801190;79;25567;-51
2023/02/26 05:25:56;;;;;;;81.40;75.87;;;;;;;-0.71;88.64;99348.94;1801134;79;27348;-53
2023/02/26 05:28:26;;;;;;;79.15;73.60;;;;;;;-0.71;88.64;99348.94;1801182;79;34720;-50
2023/02/26 05:30:53;;;;;;;80.00;74.60;;;;;;;-0.71;88.64;99348.94;1801254;79;29722;-51
2023/02/26 05:33:19;;;;;;;42.45;39.63;;;;;;;-0.72;88.64;99352.64;1801037;79;25634;-51
2023/02/26 05:35:47;;;;;;;80.45;74.80;;;;;;;-0.71;88.53;99362.22;1801140;79;25400;-51
2023/02/26 05:38:15;;;;;;;78.78;73.25;;;;;;;-0.72;88.57;99357.95;1801095;79;27334;-52
2023/02/26 05:40:42;;;;;;;78.67;73.07;;;;;;;-0.72;88.53;99366.71;1801007;79;25580;-52
2023/02/26 05:43:09;;;;;;;79.75;74.35;;;;;;;-0.72;88.59;99375.22;1801042;79;25607;-50
2023/02/26 05:45:36;;;;;;;79.22;73.92;;;;;;;-0.72;88.58;99382.64;1801076;79;25486;-50
2023/02/26 05:48:02;;;;;;;78.28;72.92;;;;;;;-0.73;88.67;99386.38;1801098;79;25584;-50
2023/02/26 05:50:29;;;;;;;79.17;73.90;;;;;;;-0.71;88.70;99389.56;1801042;79;27440;-50
2023/02/26 05:52:56;;;;;;;79.82;74.42;;;;;;;-0.71;88.74;99399.41;1819449;78;26112;-49
2023/02/26 05:55:23;;;;;;;79.17;73.80;;;;;;;-0.72;88.72;99411.07;1829538;78;25422;-50
2023/02/26 05:57:49;;;;;;;79.58;74.27;;;;;;;-0.73;88.83;99410.28;1829453;78;25551;-50
2023/02/26 06:00:18;;;;;;;82.25;76.55;;;;;;;-0.71;88.90;99420.65;1829638;78;25387;-49
2023/02/26 06:02:44;;;;;;;58.27;54.27;;;;;;;-0.73;88.72;99423.56;1829918;78;27409;-51
2023/02/26 06:05:12;;;;;;;78.55;73.25;;;;;;;-0.74;88.81;99431.23;1829592;78;25551;-50
2023/02/26 06:07:38;;;;;;;79.55;73.95;;;;;;;-0.72;88.87;99430.98;1829618;78;25559;-55
2023/02/26 06:10:07;;;;;;;35.45;33.18;;;;;;;-0.73;88.86;99440.81;1829694;78;25446;-52
2023/02/26 06:12:35;;;;;;;7.25;5.70;;;;;;;-0.73;88.94;99442.15;1829842;78;25567;-50
2023/02/26 06:15:04;;;;;;;3.25;2.92;;;;;;;-0.72;89.01;99449.58;1829629;78;27875;-53
2023/02/26 06:17:31;;;;;;;39.55;37.25;;;;;;;-0.72;89.16;99462.86;1829670;78;25596;-50
2023/02/26 06:19:58;;;;;;;82.27;76.47;;;;;;;-0.74;88.97;99457.80;1829572;78;25427;-51
2023/02/26 06:22:25;;;;;;;79.25;73.92;;;;;;;-0.75;88.67;99468.14;1829553;78;25604;-51
2023/02/26 06:24:53;;;;;;;81.08;75.03;;;;;;;-0.80;88.01;99470.75;1829685;78;25537;-54
2023/02/26 06:27:22;;;;;;;55.60;51.90;;;;;;;-0.82;88.12;99469.70;1829711;78;27303;-51
2023/02/26 06:29:48;;;;;;;81.17;75.53;;;;;;;-0.84;87.55;99478.96;1829768;78;25478;-50
2023/02/26 06:32:15;;;;;;;81.30;75.60;;;;;;;-0.89;87.35;99475.73;1829626;78;25556;-50
2023/02/26 06:34:42;;;;;;;78.72;73.42;;;;;;;-0.90;87.30;99477.31;1829514;78;25608;-53
2023/02/26 06:37:09;;;;;;;78.70;73.40;;;;;;;-0.92;86.97;99491.37;1829737;78;25558;-51
2023/02/26 06:39:35;;;;;;;79.82;74.17;;;;;;;-0.97;87.00;99491.61;1829574;78;27355;-50
2023/02/26 06:42:03;;;;;;;79.00;73.70;;;;;;;-0.95;86.57;99499.33;1829496;78;25789;-51
2023/02/26 06:44:32;;;;;;;56.97;53.10;;;;;;;-0.98;86.29;99509.11;1829878;78;25443;-50
2023/02/26 06:46:59;;;;;;;81.95;76.35;;;;;;;-1.01;86.16;99515.71;1829545;78;25601;-50
2023/02/26 06:49:25;;;;;;;79.67;74.25;;;;;;;-1.03;85.94;99514.38;1829609;78;25443;-50
2023/02/26 06:51:51;;;;;;;83.22;77.35;;;;;;;-1.03;86.16;99525.78;1827385;78;27342;-51
2023/02/26 06:54:18;;;;;;;80.12;74.53;;;;;;;-1.03;85.94;99527.11;1801139;79;25471;-51
2023/02/26 06:56:44;;;;;;;82.30;76.45;;;;;;;-1.04;85.82;99526.03;1801194;79;25467;-51
2023/02/26 06:59:11;;;;;;;78.17;72.97;;;;;;;-1.04;85.59;99540.13;1801180;79;25491;-52
2023/02/26 07:01:38;;;;;;;80.70;75.05;;;;;;;-1.05;85.46;99539.84;1801326;79;25398;-51
2023/02/26 07:04:05;;;;;;;80.92;75.05;;;;;;;-1.07;85.43;99541.13;1801236;79;27989;-53
2023/02/26 07:06:31;;;;;;;78.25;72.85;;;;;;;-1.06;85.28;99548.05;1801100;79;25509;-51
2023/02/26 07:08:58;;;;;;;80.67;75.17;;;;;;;-1.06;85.34;99556.02;1801193;79;25572;-55
2023/02/26 07:11:24;;;;;;;79.65;74.25;;;;;;;-1.05;85.52;99564.27;1801127;79;25631;-51
2023/02/26 07:13:51;;;;;;;82.65;76.72;;;;;;;-1.05;85.38;99561.08;1801152;79;25555;-52
2023/02/26 07:16:18;;;;;;;78.50;73.20;;;;;;;-1.02;85.25;99575.69;1801197;79;26447;-54
2023/02/26 07:18:44;;;;;;;81.40;75.85;;;;;;;-1.02;84.55;99576.52;1801170;79;25624;-51
2023/02/26 07:21:10;;;;;;;78.12;72.82;;;;;;;-1.00;84.54;99578.39;1801201;79;25361;-51
2023/02/26 07:23:37;;;;;;;79.30;73.90;;;;;;;-0.98;84.22;99575.48;1801186;79;33889;-50
2023/02/26 07:26:04;;;;;;;78.90;73.60;;;;;;;-0.95;84.49;99585.61;1801240;79;25574;-51
2023/02/26 07:28:31;;;;;;;79.15;73.78;;;;;;;-0.89;84.44;99585.12;1801231;79;27314;-51
2023/02/26 07:30:57;;;;;;;82.60;76.87;;;;;;;-0.85;83.94;99598.16;1801105;79;25372;-54
2023/02/26 07:33:27;;;;;;;79.03;73.65;;;;;;;-0.81;84.07;99598.75;1801172;79;25429;-51
2023/02/26 07:35:54;;;;;;;80.50;75.10;;;;;;;-0.76;83.83;99594.02;1801262;79;25414;-50
2023/02/26 07:38:22;;;;;;;77.78;72.58;;;;;;;-0.73;83.43;99594.86;1801221;79;25401;-50
2023/02/26 07:40:50;;;;;;;82.47;76.72;;;;;;;-0.68;83.19;99610.02;1801159;79;27411;-52
2023/02/26 07:43:17;;;;;;;79.97;74.50;;;;;;;-0.66;82.98;99607.41;1776579;79;25634;-51
2023/02/26 07:45:44;;;;;;;79.22;73.78;;;;;;;-0.63;82.96;99622.02;1801122;79;25611;-51
2023/02/26 07:48:10;;;;;;;80.15;74.72;;;;;;;-0.57;83.14;99631.12;1801155;79;25427;-54
2023/02/26 07:50:37;;;;;;;79.70;74.15;;;;;;;-0.52;83.08;99638.88;1801210;79;25437;-51
2023/02/26 07:53:04;;;;;;;80.45;74.95;;;;;;;-0.49;81.92;99639.71;1801071;78;27381;-51
2023/02/26 07:55:30;;;;;;;78.30;72.95;;;;;;;-0.46;81.91;99641.34;1801034;79;25440;-52
2023/02/26 07:57:56;;;;;;;81.92;76.42;;;;;;;-0.42;82.22;99646.41;1801122;79;25470;-51
2023/02/26 08:00:24;;;;;;;77.87;72.70;;;;;;;-0.34;82.56;99645.67;1801130;79;25551;-51
2023/02/26 08:02:50;;;;;;;82.08;76.45;;;;;;;-0.30;82.17;99648.91;1801128;79;25375;-52
2023/02/26 08:05:17;;;;;;;77.58;72.35;;;;;;;-0.23;81.79;99647.38;1801152;79;27534;-52
2023/02/26 08:07:44;;;;;;;79.92;74.58;;;;;;;-0.20;81.32;99646.88;1800886;79;25607;-51
2023/02/26 08:10:12;;;;;;;79.58;74.07;;;;;;;-0.16;81.19;99655.14;1801141;79;25433;-52
2023/02/26 08:12:39;;;;;;;80.28;74.65;;;;;;;-0.10;80.88;99662.91;1801045;79;26156;-50
2023/02/26 08:15:07;;;;;;;79.25;73.80;;;;;;;-0.06;80.44;99663.99;1801093;79;25550;-51
2023/02/26 08:17:34;;;;;;;81.75;76.15;;;;;;;-0.01;80.48;99671.22;1801265;79;27315;-51
2023/02/26 08:20:00;;;;;;;82.08;76.45;;;;;;;0.05;80.78;99673.37;1800967;79;25790;-50
2023/02/26 08:22:26;;;;;;;78.87;73.52;;;;;;;0.14;81.39;99677.19;1801109;79;25388;-49
2023/02/26 08:24:52;;;;;;;82.00;76.40;;;;;;;0.23;81.05;99684.95;1801015;79;25601;-50
2023/02/26 08:27:19;;;;;;;80.55;75.15;;;;;;;0.27;80.49;99695.89;1801087;79;25428;-50
2023/02/26 08:29:45;;;;;;;83.25;77.50;;;;;;;0.30;80.18;99692.72;1801041;79;27319;-50
2023/02/26 08:32:14;;;;;;;79.85;74.55;;;;;;;0.29;79.73;99695.92;1801007;79;25670;-49
2023/02/26 08:34:40;;;;;;;81.37;75.72;;;;;;;0.30;79.73;99702.83;1801188;79;25395;-52
2023/02/26 08:37:08;;;;;;;82.17;76.35;;;;;;;0.34;79.87;99704.45;1800966;79;25571;-51
2023/02/26 08:39:37;;;;;;;80.20;74.70;;;;;;;0.35;79.29;99705.52;1801132;79;25585;-51
2023/02/26 08:42:08;;;;;;;81.65;75.65;;;;;;;0.34;78.88;99709.77;1801186;79;27343;-54
2023/02/26 08:44:35;;;;;;;81.57;75.83;;;;;;;0.34;79.35;99707.11;1801022;79;25542;-49
2023/02/26 08:47:02;;;;;;;82.97;77.03;;;;;;;0.37;79.56;99719.91;1801076;79;25448;-50
2023/02/26 08:49:28;;;;;;;81.45;75.62;;;;;;;0.38;79.22;99726.05;1801090;79;25552;-50
2023/02/26 08:51:55;;;;;;;83.52;77.60;;;;;;;0.37;78.98;99730.55;1801060;79;25547;-51
2023/02/26 08:54:21;;;;;;;80.97;75.52;;;;;;;0.37;78.67;99737.20;1801011;78;27527;-50
2023/02/26 08:56:48;;;;;;;82.35;76.72;;;;;;;0.32;76.17;99739.82;1800935;79;25391;-54
2023/02/26 08:59:14;;;;;;;82.42;76.62;;;;;;;0.25;77.25;99743.23;1801094;79;25452;-50
2023/02/26 09:01:41;;;;;;;79.37;74.00;;;;;;;0.21;77.41;99754.11;1801027;79;26150;-51
2023/02/26 09:04:08;;;;;;;83.07;77.05;;;;;;;0.15;77.34;99766.55;1801109;79;25638;-52
2023/02/26 09:06:35;;;;;;;84.65;78.62;;;;;;;0.09;77.46;99772.35;1800300;79;27652;-52
2023/02/26 09:09:02;;;;;;;83.15;77.22;;;;;;;0.05;77.42;99782.41;1800978;79;25561;-50
2023/02/26 09:11:29;;;;;;;80.67;75.00;;;;;;;0.02;77.46;99789.05;1801031;79;25397;-54
2023/02/26 09:13:57;;;;;;;83.37;77.37;;;;;;;-0.02;77.57;99800.72;1800728;79;25974;-51
2023/02/26 09:16:25;;;;;;;80.62;74.92;;;;;;;-0.02;77.57;99804.70;1801121;79;25603;-53
2023/02/26 09:18:51;;;;;;;81.42;75.83;;;;;;;-0.03;77.54;99797.77;1801071;79;27312;-50
2023/02/26 09:21:18;;;;;;;80.97;75.47;;;;;;;-0.02;77.80;99800.72;1800925;79;25779;-53
2023/02/26 09:23:44;;;;;;;80.57;75.03;;;;;;;0.02;77.93;99794.87;1801080;79;25570;-52
2023/02/26 09:26:11;;;;;;;80.72;75.28;;;;;;;0.05;78.14;99805.02;1800991;79;25606;-51
2023/02/26 09:28:37;;;;;;;79.97;74.62;;;;;;;0.08;77.91;99812.50;1801086;79;25613;-52
2023/02/26 09:31:05;;;;;;;79.60;74.30;;;;;;;0.11;77.99;99814.66;1801077;79;27246;-51
2023/02/26 09:33:33;;;;;;;79.95;74.42;;;;;;;0.13;78.02;99825.31;1801095;79;25558;-52
2023/02/26 09:36:00;;;;;;;81.60;75.95;;;;;;;0.14;77.87;99817.62;1801010;79;25547;-52
2023/02/26 09:38:27;;;;;;;83.47;77.25;;;;;;;0.15;77.67;99824.55;1785215;79;26300;-53
2023/02/26 09:41:07;;;;;;;84.22;78.05;;;;;;;0.15;77.49;99836.52;1779032;79;25698;-54
2023/02/26 09:44:29;;;;;;;82.17;76.33;;;;;;;0.13;77.46;99842.59;1780477;80;27326;-51
2023/02/26 09:47:16;;;;;;;83.35;77.45;;;;;;;0.15;77.68;99843.68;1779075;79;25582;-51
2023/02/26 09:50:04;;;;;;;80.80;75.12;;;;;;;0.16;77.84;99855.94;1779034;80;25466;-51
2023/02/26 09:52:59;;;;;;;81.12;75.40;;;;;;;0.16;77.73;99860.72;1779039;80;26205;-55
2023/02/26 09:55:43;;;;;;;81.97;75.87;;;;;;;0.14;77.73;99854.85;1778313;80;25569;-56
2023/02/26 09:58:24;;;;;;;82.22;76.12;;;;;;;0.15;77.52;99860.47;1778973;80;29469;-53
2023/02/26 10:01:25;;;;;;;85.07;78.97;;;;;;;0.16;77.64;99863.91;1778964;80;25452;-51
2023/02/26 10:04:00;;;;;;;82.05;76.05;;;;;;;0.15;77.24;99870.28;1779030;79;25447;-53
2023/02/26 10:06:42;;;;;;;83.20;76.97;;;;;;;0.13;77.14;99875.05;1778991;80;25612;-53
2023/02/26 10:09:33;;;;;;;81.55;75.57;;;;;;;0.12;77.19;99874.25;1779116;80;25574;-53
2023/02/26 10:12:20;;;;;;;83.82;77.37;;;;;;;0.11;77.31;99877.95;1778996;80;27367;-51
2023/02/26 10:15:20;;;;;;;82.67;76.53;;;;;;;0.12;77.50;99882.73;1778955;80;25670;-50
2023/02/26 10:18:10;;;;;;;83.97;77.87;;;;;;;0.10;77.12;99885.67;1779135;80;25380;-53
2023/02/26 10:21:12;;;;;;;81.67;75.95;;;;;;;0.07;77.09;99888.83;1779154;80;25636;-53
2023/02/26 10:23:52;;;;;;;80.10;74.62;;;;;;;0.06;77.33;99895.19;1779101;80;25423;-52
2023/02/26 10:26:23;;;;;;;81.45;75.67;;;;;;;0.07;77.44;99894.66;1779102;80;27315;-55
2023/02/26 10:29:29;;;;;;;81.05;75.40;;;;;;;0.07;77.37;99903.96;1778946;80;25693;-55
2023/02/26 10:32:13;;;;;;;83.15;77.40;;;;;;;0.08;77.65;99901.59;1778896;79;25495;-52
2023/02/26 10:34:45;;;;;;;80.83;75.17;;;;;;;0.09;77.32;99905.33;1778843;80;27885;-55
2023/02/26 10:37:17;;;;;;;80.47;74.92;;;;;;;0.06;77.45;99901.84;1779037;77;25431;-56
2023/02/26 10:40:05;;;;;;;81.72;76.05;;;;;;;0.07;77.63;99910.61;1779004;80;27319;-55
2023/02/26 10:42:34;;;;;;;79.75;74.30;;;;;;;0.08;77.66;99918.34;1762554;78;27242;-52
2023/02/26 10:45:30;;;;;;;81.02;75.25;;;;;;;0.08;77.75;99921.53;1779025;80;25595;-54
2023/02/26 10:48:11;;;;;;;82.70;76.62;;;;;;;0.09;77.74;99925.28;1779139;77;25632;-52
2023/02/26 10:50:42;;;;;;;82.55;76.62;;;;;;;0.14;78.06;99937.84;1778953;80;25385;-53
2023/02/26 10:53:11;;;;;;;81.12;75.22;;;;;;;0.16;77.73;99939.72;1778809;80;27314;-51
2023/02/26 10:55:51;;;;;;;81.53;75.80;;;;;;;0.15;77.29;99946.08;1763753;80;25636;-54
2023/02/26 10:58:23;;;;;;;80.75;75.20;;;;;;;0.13;77.13;99948.98;1779229;80;25553;-52
2023/02/26 11:00:53;;;;;;;84.17;77.70;;;;;;;0.11;76.62;99944.45;1779179;80;25624;-52
2023/02/26 11:03:28;;;;;;;81.92;75.83;;;;;;;0.08;76.82;99946.80;1779298;80;25458;-51
2023/02/26 11:05:55;;;;;;;83.35;77.40;;;;;;;0.09;76.98;99953.74;1779917;80;27313;-53
2023/02/26 11:08:32;;;;;;;81.63;76.00;;;;;;;0.11;77.12;99953.76;1779109;79;25428;-53
2023/02/26 11:11:04;;;;;;;82.25;76.28;;;;;;;0.14;77.23;99961.25;1779169;80;25384;-53
2023/02/26 11:13:33;;;;;;;81.87;76.02;;;;;;;0.19;77.42;99964.50;1779137;79;25782;-51
2023/02/26 11:16:13;;;;;;;84.50;78.40;;;;;;;0.22;77.21;99968.50;1779288;80;25799;-50
2023/02/26 11:18:45;;;;;;;82.15;76.35;;;;;;;0.24;77.01;99965.89;1779169;80;27300;-52
2023/02/26 11:21:22;;;;;;;81.63;75.83;;;;;;;0.28;77.14;99972.31;1778652;80;25483;-50
2023/02/26 11:23:53;;;;;;;83.72;77.42;;;;;;;0.32;76.98;99976.10;1779112;80;25545;-53
2023/02/26 11:26:25;;;;;;;82.02;76.05;;;;;;;0.36;76.67;99975.08;1778694;80;25627;-54
2023/02/26 11:28:54;;;;;;;84.97;78.97;;;;;;;0.38;76.41;99977.49;1779137;80;25368;-53
2023/02/26 11:31:24;;;;;;;83.72;77.45;;;;;;;0.42;76.55;99978.59;1779238;80;27349;-53
2023/02/26 11:34:04;;;;;;;82.35;76.50;;;;;;;0.46;75.65;99973.03;1763569;80;25390;-53
2023/02/26 11:36:33;;;;;;;82.20;76.62;;;;;;;0.46;75.42;99971.20;1779150;80;25451;-54
2023/02/26 11:39:17;;;;;;;57.07;53.13;;;;;;;0.54;75.55;99976.05;1779332;80;25574;-54
2023/02/26 11:41:47;;;;;;;81.00;75.37;;;;;;;0.64;75.59;99984.68;1779153;80;25542;-55
2023/02/26 11:44:21;;;;;;;80.25;74.75;;;;;;;0.72;75.40;99986.90;1779124;80;27240;-52
2023/02/26 11:46:56;;;;;;;82.50;76.77;;;;;;;0.77;74.85;99998.14;1778488;80;25584;-52
2023/02/26 11:49:26;;;;;;;78.95;73.75;;;;;;;0.82;74.30;100002.69;1779145;79;25605;-54
2023/02/26 11:52:28;;;;;;;84.15;78.17;;;;;;;0.84;73.86;100004.06;1779048;80;25654;-52